sensor_id;sensor_type;location;lat;lon;timestamp;P1;durP1;ratioP1;P2;durP2;ratioP2
67442;SDS011;54311;51.726;5.154;2022-10-16T00:01:31;49.08;;;29.25;;
67442;SDS011;54311;51.726;5.154;2022-10-16T00:03:57;54.67;;;38.60;;
67442;SDS011;54311;51.726;5.154;2022-10-16T00:06:23;31.10;;;21.17;;
67442;SDS011;54311;51.726;5.154;2022-10-16T00:08:49;38.28;;;24.95;;
67442;SDS011;54311;51.726;5.154;2022-10-16T00:13:47;153.68;;;66.03;;
67442;SDS011;54311;51.726;5.154;2022-10-16T00:16:14;150.85;;;69.15;;
67442;SDS011;54311;51.726;5.154;2022-10-16T00:18:40;905.55;;;394.95;;
67442;SDS011;54311;51.726;5.154;2022-10-16T00:21:08;121.03;;;55.55;;
67442;SDS011;54311;51.726;5.154;2022-10-16T00:23:34;448.13;;;210.18;;
67442;SDS011;54311;51.726;5.154;2022-10-16T00:26:02;834.90;;;545.33;;
67442;SDS011;54311;51.726;5.154;2022-10-16T00:28:31;949.25;;;657.75;;
67442;SDS011;54311;51.726;5.154;2022-10-16T00:30:57;193.05;;;113.00;;
67442;SDS011;54311;51.726;5.154;2022-10-16T00:33:23;493.38;;;297.02;;
67442;SDS011;54311;51.726;5.154;2022-10-16T00:35:48;225.68;;;121.97;;
67442;SDS011;54311;51.726;5.154;2022-10-16T00:38:13;111.88;;;68.07;;
67442;SDS011;54311;51.726;5.154;2022-10-16T00:40:39;370.15;;;264.23;;
67442;SDS011;54311;51.726;5.154;2022-10-16T00:43:32;406.15;;;238.13;;
67442;SDS011;54311;51.726;5.154;2022-10-16T00:46:09;1351.53;;;674.03;;
67442;SDS011;54311;51.726;5.154;2022-10-16T00:48:37;813.15;;;547.22;;
67442;SDS011;54311;51.726;5.154;2022-10-16T00:51:03;569.80;;;350.75;;
67442;SDS011;54311;51.726;5.154;2022-10-16T00:53:29;607.13;;;395.08;;
67442;SDS011;54311;51.726;5.154;2022-10-16T00:55:55;301.90;;;155.85;;
67442;SDS011;54311;51.726;5.154;2022-10-16T00:58:21;444.42;;;256.60;;
67442;SDS011;54311;51.726;5.154;2022-10-16T01:00:46;252.45;;;148.75;;
67442;SDS011;54311;51.726;5.154;2022-10-16T01:03:22;155.02;;;93.65;;
67442;SDS011;54311;51.726;5.154;2022-10-16T01:05:50;362.73;;;249.00;;
67442;SDS011;54311;51.726;5.154;2022-10-16T01:08:31;544.05;;;365.67;;
67442;SDS011;54311;51.726;5.154;2022-10-16T01:14:02;461.70;;;345.23;;
67442;SDS011;54311;51.726;5.154;2022-10-16T01:16:42;566.13;;;469.13;;
67442;SDS011;54311;51.726;5.154;2022-10-16T01:19:18;396.10;;;301.52;;
67442;SDS011;54311;51.726;5.154;2022-10-16T01:21:50;452.75;;;350.20;;
67442;SDS011;54311;51.726;5.154;2022-10-16T01:24:22;402.63;;;320.85;;
67442;SDS011;54311;51.726;5.154;2022-10-16T01:29:42;467.48;;;382.13;;
67442;SDS011;54311;51.726;5.154;2022-10-16T01:35:36;1999.90;;;793.58;;
67442;SDS011;54311;51.726;5.154;2022-10-16T01:38:05;1999.90;;;940.90;;
67442;SDS011;54311;51.726;5.154;2022-10-16T01:40:34;1999.90;;;952.10;;
67442;SDS011;54311;51.726;5.154;2022-10-16T01:45:33;1999.90;;;916.78;;
67442;SDS011;54311;51.726;5.154;2022-10-16T01:48:00;1121.13;;;650.88;;
67442;SDS011;54311;51.726;5.154;2022-10-16T01:50:28;1539.63;;;812.42;;
67442;SDS011;54311;51.726;5.154;2022-10-16T01:52:54;1070.20;;;685.80;;
67442;SDS011;54311;51.726;5.154;2022-10-16T01:55:30;738.63;;;563.47;;
67442;SDS011;54311;51.726;5.154;2022-10-16T01:57:58;439.30;;;344.58;;
67442;SDS011;54311;51.726;5.154;2022-10-16T02:00:24;472.90;;;380.55;;
67442;SDS011;54311;51.726;5.154;2022-10-16T02:02:51;267.63;;;190.93;;
67442;SDS011;54311;51.726;5.154;2022-10-16T02:05:20;492.58;;;395.42;;
67442;SDS011;54311;51.726;5.154;2022-10-16T02:07:51;459.73;;;356.20;;
67442;SDS011;54311;51.726;5.154;2022-10-16T02:10:17;482.50;;;398.33;;
67442;SDS011;54311;51.726;5.154;2022-10-16T02:12:48;355.70;;;281.58;;
67442;SDS011;54311;51.726;5.154;2022-10-16T02:15:18;165.73;;;117.95;;
67442;SDS011;54311;51.726;5.154;2022-10-16T02:17:44;297.77;;;214.13;;
67442;SDS011;54311;51.726;5.154;2022-10-16T02:20:09;362.55;;;270.05;;
67442;SDS011;54311;51.726;5.154;2022-10-16T02:22:36;326.80;;;243.85;;
67442;SDS011;54311;51.726;5.154;2022-10-16T02:28:13;332.02;;;256.00;;
67442;SDS011;54311;51.726;5.154;2022-10-16T02:30:52;202.75;;;137.57;;
67442;SDS011;54311;51.726;5.154;2022-10-16T02:33:24;146.52;;;96.90;;
67442;SDS011;54311;51.726;5.154;2022-10-16T02:35:50;337.27;;;219.20;;
67442;SDS011;54311;51.726;5.154;2022-10-16T02:38:16;145.13;;;81.35;;
67442;SDS011;54311;51.726;5.154;2022-10-16T02:40:42;159.30;;;94.35;;
67442;SDS011;54311;51.726;5.154;2022-10-16T02:43:07;628.50;;;466.98;;
67442;SDS011;54311;51.726;5.154;2022-10-16T02:45:34;558.20;;;466.38;;
67442;SDS011;54311;51.726;5.154;2022-10-16T02:47:59;669.65;;;559.33;;
67442;SDS011;54311;51.726;5.154;2022-10-16T02:50:24;541.13;;;443.95;;
67442;SDS011;54311;51.726;5.154;2022-10-16T02:52:50;431.75;;;340.83;;
67442;SDS011;54311;51.726;5.154;2022-10-16T02:55:15;517.65;;;436.65;;
67442;SDS011;54311;51.726;5.154;2022-10-16T02:57:41;768.88;;;547.35;;
67442;SDS011;54311;51.726;5.154;2022-10-16T03:00:07;929.00;;;590.38;;
67442;SDS011;54311;51.726;5.154;2022-10-16T03:02:34;424.83;;;243.77;;
67442;SDS011;54311;51.726;5.154;2022-10-16T03:04:59;615.20;;;403.83;;
67442;SDS011;54311;51.726;5.154;2022-10-16T03:07:25;490.05;;;369.17;;
67442;SDS011;54311;51.726;5.154;2022-10-16T03:09:50;555.10;;;472.40;;
67442;SDS011;54311;51.726;5.154;2022-10-16T03:12:15;560.65;;;487.75;;
67442;SDS011;54311;51.726;5.154;2022-10-16T03:14:41;466.02;;;372.23;;
67442;SDS011;54311;51.726;5.154;2022-10-16T03:17:06;471.00;;;383.23;;
67442;SDS011;54311;51.726;5.154;2022-10-16T03:19:31;297.52;;;229.20;;
67442;SDS011;54311;51.726;5.154;2022-10-16T03:21:57;394.90;;;320.67;;
67442;SDS011;54311;51.726;5.154;2022-10-16T03:24:22;370.08;;;298.20;;
67442;SDS011;54311;51.726;5.154;2022-10-16T03:26:47;503.67;;;384.67;;
67442;SDS011;54311;51.726;5.154;2022-10-16T03:29:13;275.65;;;183.20;;
67442;SDS011;54311;51.726;5.154;2022-10-16T03:31:38;241.27;;;161.15;;
67442;SDS011;54311;51.726;5.154;2022-10-16T03:34:03;214.90;;;131.23;;
67442;SDS011;54311;51.726;5.154;2022-10-16T03:36:28;421.45;;;282.80;;
67442;SDS011;54311;51.726;5.154;2022-10-16T03:38:54;714.22;;;547.38;;
67442;SDS011;54311;51.726;5.154;2022-10-16T03:41:19;467.38;;;338.73;;
67442;SDS011;54311;51.726;5.154;2022-10-16T03:43:45;383.42;;;272.65;;
67442;SDS011;54311;51.726;5.154;2022-10-16T03:46:10;554.22;;;407.27;;
67442;SDS011;54311;51.726;5.154;2022-10-16T03:48:36;487.23;;;330.27;;
67442;SDS011;54311;51.726;5.154;2022-10-16T03:51:01;655.42;;;497.50;;
67442;SDS011;54311;51.726;5.154;2022-10-16T03:53:27;1514.88;;;822.78;;
67442;SDS011;54311;51.726;5.154;2022-10-16T03:55:52;1752.03;;;833.45;;
67442;SDS011;54311;51.726;5.154;2022-10-16T03:58:17;1592.13;;;884.55;;
67442;SDS011;54311;51.726;5.154;2022-10-16T04:00:45;643.28;;;461.25;;
67442;SDS011;54311;51.726;5.154;2022-10-16T04:03:11;386.52;;;235.70;;
67442;SDS011;54311;51.726;5.154;2022-10-16T04:05:36;1083.90;;;621.85;;
67442;SDS011;54311;51.726;5.154;2022-10-16T04:08:02;598.67;;;342.20;;
67442;SDS011;54311;51.726;5.154;2022-10-16T04:10:27;1220.65;;;797.28;;
67442;SDS011;54311;51.726;5.154;2022-10-16T04:12:52;541.50;;;405.50;;
67442;SDS011;54311;51.726;5.154;2022-10-16T04:15:21;469.10;;;390.95;;
67442;SDS011;54311;51.726;5.154;2022-10-16T04:17:47;325.92;;;226.70;;
67442;SDS011;54311;51.726;5.154;2022-10-16T04:20:12;600.05;;;393.83;;
67442;SDS011;54311;51.726;5.154;2022-10-16T04:22:38;671.97;;;481.85;;
67442;SDS011;54311;51.726;5.154;2022-10-16T04:25:04;635.65;;;470.85;;
67442;SDS011;54311;51.726;5.154;2022-10-16T04:27:29;967.85;;;731.80;;
67442;SDS011;54311;51.726;5.154;2022-10-16T04:29:56;284.35;;;207.35;;
67442;SDS011;54311;51.726;5.154;2022-10-16T04:32:24;514.63;;;457.95;;
67442;SDS011;54311;51.726;5.154;2022-10-16T04:34:50;340.20;;;262.67;;
67442;SDS011;54311;51.726;5.154;2022-10-16T04:37:15;334.30;;;265.67;;
67442;SDS011;54311;51.726;5.154;2022-10-16T04:39:40;322.27;;;270.27;;
67442;SDS011;54311;51.726;5.154;2022-10-16T04:42:06;411.45;;;340.02;;
67442;SDS011;54311;51.726;5.154;2022-10-16T04:44:31;627.92;;;558.70;;
67442;SDS011;54311;51.726;5.154;2022-10-16T04:46:56;550.45;;;446.02;;
67442;SDS011;54311;51.726;5.154;2022-10-16T04:49:22;650.05;;;550.45;;
67442;SDS011;54311;51.726;5.154;2022-10-16T04:51:47;451.63;;;326.60;;
67442;SDS011;54311;51.726;5.154;2022-10-16T04:54:12;996.05;;;736.22;;
67442;SDS011;54311;51.726;5.154;2022-10-16T04:56:38;959.30;;;727.08;;
67442;SDS011;54311;51.726;5.154;2022-10-16T04:59:11;701.88;;;538.92;;
67442;SDS011;54311;51.726;5.154;2022-10-16T05:01:36;873.13;;;646.83;;
67442;SDS011;54311;51.726;5.154;2022-10-16T05:04:02;600.55;;;471.58;;
67442;SDS011;54311;51.726;5.154;2022-10-16T05:06:27;691.95;;;531.13;;
67442;SDS011;54311;51.726;5.154;2022-10-16T05:08:52;389.77;;;270.77;;
67442;SDS011;54311;51.726;5.154;2022-10-16T05:11:18;434.52;;;292.75;;
67442;SDS011;54311;51.726;5.154;2022-10-16T05:13:43;492.65;;;357.50;;
67442;SDS011;54311;51.726;5.154;2022-10-16T05:16:08;344.63;;;229.05;;
67442;SDS011;54311;51.726;5.154;2022-10-16T05:18:34;307.65;;;207.13;;
67442;SDS011;54311;51.726;5.154;2022-10-16T05:20:59;408.95;;;271.10;;
67442;SDS011;54311;51.726;5.154;2022-10-16T05:23:24;760.63;;;579.80;;
67442;SDS011;54311;51.726;5.154;2022-10-16T05:25:54;911.10;;;687.70;;
67442;SDS011;54311;51.726;5.154;2022-10-16T05:28:20;687.75;;;527.83;;
67442;SDS011;54311;51.726;5.154;2022-10-16T05:30:46;669.78;;;503.55;;
67442;SDS011;54311;51.726;5.154;2022-10-16T05:33:11;567.28;;;446.15;;
67442;SDS011;54311;51.726;5.154;2022-10-16T05:35:36;474.42;;;348.48;;
67442;SDS011;54311;51.726;5.154;2022-10-16T05:38:02;392.17;;;269.35;;
67442;SDS011;54311;51.726;5.154;2022-10-16T05:40:27;411.92;;;271.17;;
67442;SDS011;54311;51.726;5.154;2022-10-16T05:42:56;391.33;;;249.23;;
67442;SDS011;54311;51.726;5.154;2022-10-16T05:45:21;378.30;;;257.95;;
67442;SDS011;54311;51.726;5.154;2022-10-16T05:47:46;424.92;;;299.42;;
67442;SDS011;54311;51.726;5.154;2022-10-16T05:50:11;549.72;;;389.23;;
67442;SDS011;54311;51.726;5.154;2022-10-16T05:52:37;438.40;;;288.85;;
67442;SDS011;54311;51.726;5.154;2022-10-16T05:55:02;453.92;;;305.10;;
67442;SDS011;54311;51.726;5.154;2022-10-16T05:57:28;459.77;;;298.55;;
67442;SDS011;54311;51.726;5.154;2022-10-16T05:59:53;558.58;;;366.85;;
67442;SDS011;54311;51.726;5.154;2022-10-16T06:02:19;262.38;;;154.52;;
67442;SDS011;54311;51.726;5.154;2022-10-16T06:04:44;375.23;;;219.65;;
67442;SDS011;54311;51.726;5.154;2022-10-16T06:07:09;444.63;;;281.00;;
67442;SDS011;54311;51.726;5.154;2022-10-16T06:09:35;418.05;;;275.58;;
67442;SDS011;54311;51.726;5.154;2022-10-16T06:12:00;290.70;;;187.10;;
67442;SDS011;54311;51.726;5.154;2022-10-16T06:14:25;209.13;;;138.98;;
67442;SDS011;54311;51.726;5.154;2022-10-16T06:16:51;150.80;;;100.95;;
67442;SDS011;54311;51.726;5.154;2022-10-16T06:19:16;159.55;;;116.35;;
67442;SDS011;54311;51.726;5.154;2022-10-16T06:21:42;164.95;;;113.57;;
67442;SDS011;54311;51.726;5.154;2022-10-16T06:24:08;220.57;;;131.07;;
67442;SDS011;54311;51.726;5.154;2022-10-16T06:26:33;184.18;;;100.95;;
67442;SDS011;54311;51.726;5.154;2022-10-16T06:28:59;332.70;;;177.85;;
67442;SDS011;54311;51.726;5.154;2022-10-16T06:31:25;225.55;;;116.65;;
67442;SDS011;54311;51.726;5.154;2022-10-16T06:33:52;312.45;;;150.68;;
67442;SDS011;54311;51.726;5.154;2022-10-16T06:36:18;706.70;;;480.38;;
67442;SDS011;54311;51.726;5.154;2022-10-16T06:38:43;468.77;;;272.75;;
67442;SDS011;54311;51.726;5.154;2022-10-16T06:41:11;247.68;;;123.43;;
67442;SDS011;54311;51.726;5.154;2022-10-16T06:43:37;230.07;;;110.00;;
67442;SDS011;54311;51.726;5.154;2022-10-16T06:46:04;241.20;;;117.97;;
67442;SDS011;54311;51.726;5.154;2022-10-16T06:48:30;210.82;;;112.38;;
67442;SDS011;54311;51.726;5.154;2022-10-16T06:50:59;159.15;;;89.53;;
67442;SDS011;54311;51.726;5.154;2022-10-16T06:53:27;218.13;;;133.60;;
67442;SDS011;54311;51.726;5.154;2022-10-16T06:55:53;351.70;;;242.35;;
67442;SDS011;54311;51.726;5.154;2022-10-16T06:58:19;296.17;;;190.60;;
67442;SDS011;54311;51.726;5.154;2022-10-16T07:00:44;386.08;;;268.73;;
67442;SDS011;54311;51.726;5.154;2022-10-16T07:03:10;284.27;;;185.52;;
67442;SDS011;54311;51.726;5.154;2022-10-16T07:05:38;297.73;;;194.45;;
67442;SDS011;54311;51.726;5.154;2022-10-16T07:08:06;238.32;;;160.55;;
67442;SDS011;54311;51.726;5.154;2022-10-16T07:10:32;164.65;;;117.00;;
67442;SDS011;54311;51.726;5.154;2022-10-16T07:12:57;205.55;;;153.90;;
67442;SDS011;54311;51.726;5.154;2022-10-16T07:15:24;331.10;;;254.35;;
67442;SDS011;54311;51.726;5.154;2022-10-16T07:17:50;284.52;;;210.90;;
67442;SDS011;54311;51.726;5.154;2022-10-16T07:20:16;133.23;;;94.45;;
67442;SDS011;54311;51.726;5.154;2022-10-16T07:22:41;201.68;;;139.35;;
67442;SDS011;54311;51.726;5.154;2022-10-16T07:25:07;179.88;;;112.85;;
67442;SDS011;54311;51.726;5.154;2022-10-16T07:27:32;193.13;;;126.10;;
67442;SDS011;54311;51.726;5.154;2022-10-16T07:29:58;167.20;;;119.05;;
67442;SDS011;54311;51.726;5.154;2022-10-16T07:32:23;277.35;;;204.63;;
67442;SDS011;54311;51.726;5.154;2022-10-16T07:34:50;246.68;;;188.27;;
67442;SDS011;54311;51.726;5.154;2022-10-16T07:37:16;348.52;;;268.42;;
67442;SDS011;54311;51.726;5.154;2022-10-16T07:39:41;218.65;;;152.30;;
67442;SDS011;54311;51.726;5.154;2022-10-16T07:42:06;149.77;;;109.05;;
67442;SDS011;54311;51.726;5.154;2022-10-16T07:44:32;230.40;;;158.50;;
67442;SDS011;54311;51.726;5.154;2022-10-16T07:46:58;428.23;;;269.00;;
67442;SDS011;54311;51.726;5.154;2022-10-16T07:49:23;243.40;;;148.35;;
67442;SDS011;54311;51.726;5.154;2022-10-16T07:51:48;160.90;;;105.32;;
67442;SDS011;54311;51.726;5.154;2022-10-16T07:54:13;200.32;;;145.02;;
67442;SDS011;54311;51.726;5.154;2022-10-16T07:56:39;171.98;;;128.90;;
67442;SDS011;54311;51.726;5.154;2022-10-16T07:59:04;129.40;;;100.28;;
67442;SDS011;54311;51.726;5.154;2022-10-16T08:01:29;59.05;;;47.00;;
67442;SDS011;54311;51.726;5.154;2022-10-16T08:03:55;52.92;;;41.03;;
67442;SDS011;54311;51.726;5.154;2022-10-16T08:06:21;58.75;;;44.50;;
67442;SDS011;54311;51.726;5.154;2022-10-16T08:08:46;51.40;;;35.10;;
67442;SDS011;54311;51.726;5.154;2022-10-16T08:11:12;14.38;;;10.65;;
67442;SDS011;54311;51.726;5.154;2022-10-16T08:13:39;52.92;;;36.08;;
67442;SDS011;54311;51.726;5.154;2022-10-16T08:16:04;31.65;;;24.58;;
67442;SDS011;54311;51.726;5.154;2022-10-16T08:18:39;115.72;;;82.03;;
67442;SDS011;54311;51.726;5.154;2022-10-16T08:21:05;46.40;;;32.92;;
67442;SDS011;54311;51.726;5.154;2022-10-16T08:23:32;45.70;;;32.95;;
67442;SDS011;54311;51.726;5.154;2022-10-16T08:26:01;16.95;;;12.30;;
67442;SDS011;54311;51.726;5.154;2022-10-16T08:28:29;45.97;;;28.27;;
67442;SDS011;54311;51.726;5.154;2022-10-16T08:30:54;19.45;;;10.57;;
67442;SDS011;54311;51.726;5.154;2022-10-16T08:33:21;13.90;;;7.32;;
67442;SDS011;54311;51.726;5.154;2022-10-16T08:35:50;12.35;;;7.47;;
67442;SDS011;54311;51.726;5.154;2022-10-16T08:38:17;7.95;;;5.80;;
67442;SDS011;54311;51.726;5.154;2022-10-16T08:40:42;9.23;;;7.03;;
67442;SDS011;54311;51.726;5.154;2022-10-16T08:43:12;6.50;;;5.85;;
67442;SDS011;54311;51.726;5.154;2022-10-16T08:48:46;13.45;;;5.10;;
67442;SDS011;54311;51.726;5.154;2022-10-16T08:51:32;18.30;;;9.23;;
67442;SDS011;54311;51.726;5.154;2022-10-16T08:53:58;15.30;;;7.85;;
67442;SDS011;54311;51.726;5.154;2022-10-16T08:56:39;21.90;;;11.82;;
67442;SDS011;54311;51.726;5.154;2022-10-16T08:59:06;30.75;;;15.18;;
67442;SDS011;54311;51.726;5.154;2022-10-16T09:01:43;13.13;;;6.57;;
67442;SDS011;54311;51.726;5.154;2022-10-16T09:06:55;13.90;;;6.13;;
67442;SDS011;54311;51.726;5.154;2022-10-16T09:09:50;8.30;;;4.60;;
67442;SDS011;54311;51.726;5.154;2022-10-16T09:12:21;6.07;;;4.30;;
67442;SDS011;54311;51.726;5.154;2022-10-16T09:22:40;18.95;;;9.07;;
67442;SDS011;54311;51.726;5.154;2022-10-16T09:25:13;15.00;;;6.10;;
67442;SDS011;54311;51.726;5.154;2022-10-16T09:27:41;17.92;;;8.30;;
67442;SDS011;54311;51.726;5.154;2022-10-16T09:30:15;13.93;;;7.78;;
67442;SDS011;54311;51.726;5.154;2022-10-16T09:32:42;20.85;;;6.88;;
67442;SDS011;54311;51.726;5.154;2022-10-16T09:35:54;10.48;;;4.90;;
67442;SDS011;54311;51.726;5.154;2022-10-16T09:38:01;18.60;;;6.50;;
67442;SDS011;54311;51.726;5.154;2022-10-16T09:40:30;23.65;;;5.53;;
67442;SDS011;54311;51.726;5.154;2022-10-16T09:43:06;14.48;;;5.15;;
67442;SDS011;54311;51.726;5.154;2022-10-16T09:45:42;11.63;;;4.95;;
67442;SDS011;54311;51.726;5.154;2022-10-16T09:48:11;10.52;;;4.03;;
67442;SDS011;54311;51.726;5.154;2022-10-16T09:50:37;11.43;;;5.32;;
67442;SDS011;54311;51.726;5.154;2022-10-16T09:53:04;18.23;;;6.35;;
67442;SDS011;54311;51.726;5.154;2022-10-16T09:55:36;11.73;;;5.80;;
67442;SDS011;54311;51.726;5.154;2022-10-16T09:58:13;12.98;;;6.90;;
67442;SDS011;54311;51.726;5.154;2022-10-16T10:00:39;19.45;;;5.05;;
67442;SDS011;54311;51.726;5.154;2022-10-16T10:03:10;16.80;;;5.10;;
67442;SDS011;54311;51.726;5.154;2022-10-16T10:05:35;23.60;;;11.23;;
67442;SDS011;54311;51.726;5.154;2022-10-16T10:08:04;30.45;;;12.95;;
67442;SDS011;54311;51.726;5.154;2022-10-16T10:10:32;12.77;;;4.03;;
67442;SDS011;54311;51.726;5.154;2022-10-16T10:13:16;20.85;;;8.00;;
67442;SDS011;54311;51.726;5.154;2022-10-16T10:15:43;15.95;;;4.22;;
67442;SDS011;54311;51.726;5.154;2022-10-16T10:18:19;10.25;;;3.40;;
67442;SDS011;54311;51.726;5.154;2022-10-16T10:20:46;14.88;;;4.88;;
67442;SDS011;54311;51.726;5.154;2022-10-16T10:23:23;21.13;;;6.80;;
67442;SDS011;54311;51.726;5.154;2022-10-16T10:26:02;14.25;;;4.35;;
67442;SDS011;54311;51.726;5.154;2022-10-16T10:37:52;14.20;;;4.78;;
67442;SDS011;54311;51.726;5.154;2022-10-16T10:42:41;14.35;;;3.88;;
67442;SDS011;54311;51.726;5.154;2022-10-16T10:45:17;12.52;;;4.18;;
67442;SDS011;54311;51.726;5.154;2022-10-16T10:50:49;21.42;;;9.68;;
67442;SDS011;54311;51.726;5.154;2022-10-16T11:01:18;17.77;;;6.57;;
67442;SDS011;54311;51.726;5.154;2022-10-16T11:04:01;19.60;;;4.45;;
67442;SDS011;54311;51.726;5.154;2022-10-16T11:06:50;17.23;;;4.70;;
67442;SDS011;54311;51.726;5.154;2022-10-16T11:09:30;13.50;;;4.28;;
67442;SDS011;54311;51.726;5.154;2022-10-16T11:12:05;13.77;;;4.20;;
67442;SDS011;54311;51.726;5.154;2022-10-16T11:14:36;19.10;;;4.25;;
67442;SDS011;54311;51.726;5.154;2022-10-16T11:17:06;10.07;;;3.50;;
67442;SDS011;54311;51.726;5.154;2022-10-16T11:24:43;12.73;;;4.00;;
67442;SDS011;54311;51.726;5.154;2022-10-16T11:27:12;12.82;;;4.32;;
67442;SDS011;54311;51.726;5.154;2022-10-16T11:29:49;14.48;;;4.05;;
67442;SDS011;54311;51.726;5.154;2022-10-16T11:32:21;17.48;;;3.83;;
67442;SDS011;54311;51.726;5.154;2022-10-16T11:34:50;13.75;;;3.67;;
67442;SDS011;54311;51.726;5.154;2022-10-16T11:37:19;12.32;;;3.40;;
67442;SDS011;54311;51.726;5.154;2022-10-16T11:39:49;20.10;;;3.75;;
67442;SDS011;54311;51.726;5.154;2022-10-16T11:42:22;15.02;;;3.97;;
67442;SDS011;54311;51.726;5.154;2022-10-16T11:49:56;20.67;;;4.28;;
67442;SDS011;54311;51.726;5.154;2022-10-16T11:52:28;16.38;;;3.65;;
67442;SDS011;54311;51.726;5.154;2022-10-16T11:55:18;16.98;;;3.33;;
67442;SDS011;54311;51.726;5.154;2022-10-16T11:57:47;14.65;;;3.60;;
67442;SDS011;54311;51.726;5.154;2022-10-16T12:00:51;13.00;;;4.00;;
67442;SDS011;54311;51.726;5.154;2022-10-16T12:03:12;18.92;;;4.10;;
67442;SDS011;54311;51.726;5.154;2022-10-16T12:05:52;16.25;;;3.97;;
67442;SDS011;54311;51.726;5.154;2022-10-16T12:08:45;14.38;;;3.50;;
67442;SDS011;54311;51.726;5.154;2022-10-16T12:11:22;18.48;;;4.00;;
67442;SDS011;54311;51.726;5.154;2022-10-16T12:13:47;14.43;;;4.25;;
67442;SDS011;54311;51.726;5.154;2022-10-16T12:18:39;13.50;;;3.70;;
67442;SDS011;54311;51.726;5.154;2022-10-16T12:21:05;11.18;;;3.53;;
67442;SDS011;54311;51.726;5.154;2022-10-16T12:23:54;21.00;;;3.88;;
67442;SDS011;54311;51.726;5.154;2022-10-16T12:26:25;12.75;;;3.50;;
67442;SDS011;54311;51.726;5.154;2022-10-16T12:28:52;9.00;;;2.97;;
67442;SDS011;54311;51.726;5.154;2022-10-16T12:31:17;16.42;;;3.75;;
67442;SDS011;54311;51.726;5.154;2022-10-16T12:33:52;12.18;;;3.50;;
67442;SDS011;54311;51.726;5.154;2022-10-16T12:36:29;12.07;;;3.65;;
67442;SDS011;54311;51.726;5.154;2022-10-16T12:38:56;13.00;;;4.28;;
67442;SDS011;54311;51.726;5.154;2022-10-16T12:43:51;12.77;;;3.83;;
67442;SDS011;54311;51.726;5.154;2022-10-16T12:48:42;13.07;;;4.33;;
67442;SDS011;54311;51.726;5.154;2022-10-16T12:51:23;19.63;;;4.47;;
67442;SDS011;54311;51.726;5.154;2022-10-16T12:54:13;12.88;;;3.55;;
67442;SDS011;54311;51.726;5.154;2022-10-16T13:10:09;16.85;;;4.00;;
67442;SDS011;54311;51.726;5.154;2022-10-16T13:15:16;13.30;;;3.50;;
67442;SDS011;54311;51.726;5.154;2022-10-16T13:18:02;9.45;;;3.17;;
67442;SDS011;54311;51.726;5.154;2022-10-16T13:23:23;12.27;;;3.30;;
67442;SDS011;54311;51.726;5.154;2022-10-16T13:28:27;14.25;;;3.72;;
67442;SDS011;54311;51.726;5.154;2022-10-16T13:30:54;12.45;;;3.25;;
67442;SDS011;54311;51.726;5.154;2022-10-16T13:35:57;14.02;;;3.70;;
67442;SDS011;54311;51.726;5.154;2022-10-16T13:38:30;11.55;;;3.40;;
67442;SDS011;54311;51.726;5.154;2022-10-16T13:41:01;11.02;;;3.45;;
67442;SDS011;54311;51.726;5.154;2022-10-16T13:43:29;11.48;;;3.75;;
67442;SDS011;54311;51.726;5.154;2022-10-16T13:45:58;9.57;;;3.03;;
67442;SDS011;54311;51.726;5.154;2022-10-16T13:48:28;12.25;;;3.30;;
67442;SDS011;54311;51.726;5.154;2022-10-16T13:51:01;13.23;;;3.10;;
67442;SDS011;54311;51.726;5.154;2022-10-16T13:53:29;14.05;;;3.75;;
67442;SDS011;54311;51.726;5.154;2022-10-16T13:55:56;12.98;;;3.83;;
67442;SDS011;54311;51.726;5.154;2022-10-16T13:58:21;14.27;;;4.22;;
67442;SDS011;54311;51.726;5.154;2022-10-16T14:01:20;12.68;;;3.92;;
67442;SDS011;54311;51.726;5.154;2022-10-16T14:03:45;18.80;;;4.28;;
67442;SDS011;54311;51.726;5.154;2022-10-16T14:06:15;10.48;;;3.85;;
67442;SDS011;54311;51.726;5.154;2022-10-16T14:08:43;14.30;;;3.60;;
67442;SDS011;54311;51.726;5.154;2022-10-16T14:11:10;10.10;;;3.65;;
67442;SDS011;54311;51.726;5.154;2022-10-16T14:13:37;14.73;;;3.63;;
67442;SDS011;54311;51.726;5.154;2022-10-16T14:16:08;9.65;;;3.78;;
67442;SDS011;54311;51.726;5.154;2022-10-16T14:18:35;14.20;;;3.47;;
67442;SDS011;54311;51.726;5.154;2022-10-16T14:21:03;8.82;;;3.60;;
67442;SDS011;54311;51.726;5.154;2022-10-16T14:23:36;9.05;;;3.72;;
67442;SDS011;54311;51.726;5.154;2022-10-16T14:26:06;11.40;;;4.28;;
67442;SDS011;54311;51.726;5.154;2022-10-16T14:28:38;11.05;;;3.88;;
67442;SDS011;54311;51.726;5.154;2022-10-16T14:33:51;19.73;;;4.10;;
67442;SDS011;54311;51.726;5.154;2022-10-16T14:36:16;11.57;;;3.47;;
67442;SDS011;54311;51.726;5.154;2022-10-16T14:41:14;11.52;;;4.28;;
67442;SDS011;54311;51.726;5.154;2022-10-16T14:43:40;9.80;;;4.32;;
67442;SDS011;54311;51.726;5.154;2022-10-16T14:46:16;10.23;;;3.70;;
67442;SDS011;54311;51.726;5.154;2022-10-16T14:48:43;13.05;;;4.28;;
67442;SDS011;54311;51.726;5.154;2022-10-16T14:51:15;11.20;;;4.32;;
67442;SDS011;54311;51.726;5.154;2022-10-16T14:53:41;12.48;;;4.30;;
67442;SDS011;54311;51.726;5.154;2022-10-16T14:56:25;7.18;;;3.55;;
67442;SDS011;54311;51.726;5.154;2022-10-16T14:58:53;6.40;;;3.03;;
67442;SDS011;54311;51.726;5.154;2022-10-16T15:01:20;10.95;;;3.70;;
67442;SDS011;54311;51.726;5.154;2022-10-16T15:03:45;10.07;;;3.90;;
67442;SDS011;54311;51.726;5.154;2022-10-16T15:06:11;10.45;;;3.97;;
67442;SDS011;54311;51.726;5.154;2022-10-16T15:08:37;14.82;;;3.50;;
67442;SDS011;54311;51.726;5.154;2022-10-16T15:11:03;12.98;;;4.93;;
67442;SDS011;54311;51.726;5.154;2022-10-16T15:13:30;23.63;;;6.68;;
67442;SDS011;54311;51.726;5.154;2022-10-16T15:15:55;8.07;;;3.60;;
67442;SDS011;54311;51.726;5.154;2022-10-16T15:18:21;12.18;;;3.30;;
67442;SDS011;54311;51.726;5.154;2022-10-16T15:20:48;10.65;;;3.42;;
67442;SDS011;54311;51.726;5.154;2022-10-16T15:23:18;11.65;;;3.63;;
67442;SDS011;54311;51.726;5.154;2022-10-16T15:28:12;14.55;;;3.63;;
67442;SDS011;54311;51.726;5.154;2022-10-16T15:30:39;8.38;;;3.85;;
67442;SDS011;54311;51.726;5.154;2022-10-16T15:33:05;9.43;;;4.30;;
67442;SDS011;54311;51.726;5.154;2022-10-16T15:35:33;12.00;;;4.78;;
67442;SDS011;54311;51.726;5.154;2022-10-16T15:37:59;9.18;;;4.13;;
67442;SDS011;54311;51.726;5.154;2022-10-16T15:40:24;9.88;;;4.35;;
67442;SDS011;54311;51.726;5.154;2022-10-16T15:42:50;16.23;;;4.53;;
67442;SDS011;54311;51.726;5.154;2022-10-16T15:45:15;9.88;;;3.60;;
67442;SDS011;54311;51.726;5.154;2022-10-16T15:47:41;9.40;;;3.78;;
67442;SDS011;54311;51.726;5.154;2022-10-16T15:50:09;11.15;;;3.95;;
67442;SDS011;54311;51.726;5.154;2022-10-16T15:52:36;11.50;;;3.78;;
67442;SDS011;54311;51.726;5.154;2022-10-16T15:55:01;25.88;;;5.07;;
67442;SDS011;54311;51.726;5.154;2022-10-16T15:57:28;6.30;;;3.30;;
67442;SDS011;54311;51.726;5.154;2022-10-16T15:59:54;11.02;;;3.72;;
67442;SDS011;54311;51.726;5.154;2022-10-16T16:02:19;8.18;;;3.42;;
67442;SDS011;54311;51.726;5.154;2022-10-16T16:04:45;8.68;;;3.40;;